• Join FlightAware (Why Join?)
  • Login
  • US Flag 
10:12PM EDT


 

Airport Tracker/Info


-or-


 

Live Flight TrackerFlight Track Log ✈ UAL3776 ✈ 16-Apr-2013 ✈ KMIA - KIAD

Flight Track Log - Related Links

Times and Time Zones

All times are in EDT time to prevent confusion due to time zone crossing. See the UAL3776 flight status page for this flight to view local times or setup timezone preferences in your user account.

Time Position Orientation Groundspeed Altitude Reporting Facility
EDT Latitude Longitude Course Direction KTS MPH feet Rate Location/Type
11:59AM 25.7983 -80.2675 81° East 141 162 1,100  Level Miami Center
12:00PM 25.8033 -80.2331 81° East 184 212 2,500 2,520 Climbing Miami Center
12:01PM 25.8131 -80.1711 80° East 205 236 5,200 2,280 Climbing Miami Center
12:02PM 25.8675 -80.1656 North 250 288 7,000 900 Climbing Miami Center
12:03PM 25.9442 -80.1956 341° North 268 308 7,000 780 Level Miami Center
12:04PM 26.0119 -80.2414 329° Northwest 275 316 8,600 1,860 Climbing Miami Center
12:05PM 26.0714 -80.2869 325° Northwest 290 334 10,800 2,340 Climbing Miami Center
12:06PM 26.1431 -80.3536 320° Northwest 295 339 13,300 1,620 Climbing Miami Center
12:07PM 26.2106 -80.4136 321° Northwest 320 368 14,100 1,440 Climbing Miami Center
12:08PM 26.3094 -80.4675 334° Northwest 349 402 16,200 1,860 Climbing Miami Center
12:09PM 26.3939 -80.5094 336° Northwest 359 413 17,900 1,500 Climbing Miami Center
12:10PM 26.4953 -80.5567 337° Northwest 359 413 19,300 1,320 Climbing Miami Center
12:11PM 26.5858 -80.6014 336° Northwest 370 426 20,600 1,380 Climbing Miami Center
12:12PM 26.6953 -80.6514 338° Northwest 380 437 22,100 1,320 Climbing Miami Center
12:13PM 26.7861 -80.6939 337° Northwest 390 449 23,300 1,200 Climbing Miami Center
12:14PM 26.8936 -80.7347 341° North 390 449 24,600 1,200 Climbing Miami Center
12:15PM 26.9989 -80.7731 342° North 390 449 25,700 1,080 Climbing Miami Center
12:16PM 27.1106 -80.8142 342° North 403 464 26,800 960 Climbing Miami Center
12:17PM 27.2203 -80.8553 342° North 409 471 27,700 960 Climbing Miami Center
12:18PM 27.3361 -80.8919 344° North 417 480 28,800 1,200 Climbing Miami Center
12:19PM 27.4519 -80.9336 342° North 429 494 30,100 1,500 Climbing Miami Center
12:20PM 27.5592 -80.9725 342° North 424 488 31,800 1,500 Climbing Miami Center
12:21PM 27.6708 -81.0139 342° North 418 481 33,100 1,140 Climbing Miami Center
12:22PM 27.7739 -81.0531 341° North 407 468 34,100 900 Climbing Miami Center
12:23PM 27.8917 -81.0972 342° North 401 461 35,000 420 Climbing Miami Center
12:24PM 28.0011 -81.1342 343° North 401 461 35,000  Level Miami Center
12:25PM 28.1194 -81.1553 351° North 420 483 35,000  Level Miami Center
12:26PM 28.2339 -81.1714 353° North 448 516 35,000  Level Miami Center
12:27PM 28.3625 -81.1928 352° North 454 522 35,000  Level Miami Center
12:28PM 28.4914 -81.2119 353° North 465 535 35,000  Level Miami Center
12:29PM 28.6200 -81.2311 353° North 465 535 35,000  Level Miami Center
12:30PM 28.7364 -81.2517 351° North 460 529 35,000  Level Jacksonville Center
12:31PM 28.8617 -81.2711 352° North 465 535 35,000  Level Jacksonville Center
12:32PM 28.9914 -81.2928 352° North 465 535 35,000  Level Jacksonville Center
12:33PM 29.1231 -81.3072 355° North 465 535 35,000  Level Jacksonville Center
12:34PM 29.2525 -81.3144 357° North 465 535 35,000  Level Jacksonville Center
12:35PM 29.3842 -81.3244 356° North 465 535 35,000  Level Jacksonville Center
12:36PM 29.5117 -81.3319 357° North 460 529 35,000  Level Jacksonville Center
12:37PM 29.6433 -81.3392 357° North 465 535 35,000  Level Jacksonville Center
12:38PM 29.7750 -81.3492 356° North 465 535 35,000  Level Jacksonville Center
12:39PM 29.9064 -81.3567 357° North 465 535 35,000  Level Jacksonville Center
12:40PM 30.0403 -81.3642 357° North 465 535 35,000  Level Jacksonville Center
12:41PM 30.1719 -81.3692 358° North 465 535 35,000  Level Jacksonville Center
12:42PM 30.3033 -81.3767 357° North 470 541 35,000  Level Jacksonville Center
12:43PM 30.4350 -81.3867 356° North 470 541 35,000  Level Jacksonville Center
12:44PM 30.5667 -81.3944 357° North 470 541 35,000  Level Jacksonville Center
12:45PM 30.6983 -81.4019 357° North 470 541 35,000  Level Jacksonville Center
12:46PM 30.8300 -81.4119 356° North 470 541 35,000  Level Jacksonville Center
12:47PM 30.9594 -81.4197 357° North 470 541 35,000  Level Jacksonville Center
12:48PM 31.0892 -81.4297 356° North 470 541 35,000  Level Jacksonville Center
12:49PM 31.2103 -81.4278 North 470 541 35,000  Level Jacksonville Center
12:50PM 31.3369 -81.3772 19° North 475 547 35,000  Level Jacksonville Center
12:51PM 31.4717 -81.2994 26° Northeast 472 543 35,000  Level Jacksonville Center
12:52PM 31.5836 -81.2414 24° Northeast 487 560 35,000  Level Jacksonville Center
12:53PM 31.7206 -81.1683 24° Northeast 487 560 35,000  Level Jacksonville Center
12:54PM 31.8428 -81.1000 25° Northeast 480 552 35,000  Level Jacksonville Center
12:55PM 31.9567 -81.0389 24° Northeast 485 558 35,000  Level Jacksonville Center
12:56PM 32.0914 -80.9650 25° Northeast 485 558 35,000  Level Jacksonville Center
12:57PM 32.2031 -80.9064 24° Northeast 485 558 35,000  Level Jacksonville Center
12:58PM 32.3397 -80.8319 25° Northeast 479 551 35,000  Level Jacksonville Center
12:59PM 32.4597 -80.7628 26° Northeast 484 557 35,000  Level Jacksonville Center
01:00PM 32.5817 -80.6958 25° Northeast 489 563 35,000  Level Jacksonville Center
01:01PM 32.7058 -80.6261 25° Northeast 481 554 35,000  Level Jacksonville Center
01:02PM 32.8297 -80.5564 25° Northeast 481 554 35,000  Level Jacksonville Center
01:03PM 32.9536 -80.4889 25° Northeast 481 554 35,000  Level Jacksonville Center
01:04PM 33.0797 -80.4233 24° Northeast 481 554 35,000  Level Jacksonville Center
01:05PM 33.2014 -80.3456 28° Northeast 488 562 35,000  Level Jacksonville Center
01:06PM 33.3150 -80.2878 23° Northeast 483 556 35,000  Level Jacksonville Center
01:07PM 33.4367 -80.2169 26° Northeast 483 556 35,000  Level Jacksonville Center
01:08PM 33.5542 -80.1486 26° Northeast 478 550 35,000  Level Jacksonville Center
01:09PM 33.6756 -80.0800 25° Northeast 478 550 35,000  Level Jacksonville Center
01:10PM 33.7972 -80.0086 26° Northeast 478 550 35,000  Level Jacksonville Center
01:11PM 33.9186 -79.9369 26° Northeast 478 550 35,000  Level Jacksonville Center
01:12PM 34.0381 -79.8703 25° Northeast 478 550 35,000  Level Jacksonville Center
01:13PM 34.1594 -79.7983 26° Northeast 478 550 35,000  Level Jacksonville Center
01:14PM 34.3669 -79.6753 26° Northeast 487 560 35,000  Level Washington Center
01:15PM 34.4861 -79.6081 25° Northeast 487 560 35,000  Level Washington Center
01:16PM 34.6075 -79.5383 25° Northeast 480 552 35,000  Level Washington Center
01:17PM 34.7264 -79.4708 25° Northeast 475 547 35,000  Level Washington Center
01:18PM 34.8478 -79.3983 26° Northeast 475 547 35,000  Level Washington Center
01:19PM 34.9689 -79.3253 26° Northeast 475 547 35,000  Level Washington Center
01:20PM 35.0900 -79.2547 25° Northeast 475 547 35,000 -300 Level Washington Center
01:21PM 35.2133 -79.1842 25° Northeast 475 547 34,400 -900 Descending Washington Center
01:22PM 35.3408 -79.1058 27° Northeast 481 554 33,300 -1,080 Descending Washington Center
01:23PM 35.4597 -79.0372 25° Northeast 481 554 32,300 -1,020 Descending Washington Center
01:24PM 35.5869 -78.9608 26° Northeast 493 567 31,300 -1,020 Descending Washington Center
01:25PM 35.7122 -78.8844 26° Northeast 493 567 30,300 -1,020 Descending Washington Center
01:26PM 35.8375 -78.8100 26° Northeast 498 573 29,300 -1,020 Descending Washington Center
01:27PM 35.9625 -78.7383 25° Northeast 498 573 28,300 -1,020 Descending Washington Center
01:28PM 36.0811 -78.6708 25° Northeast 481 554 27,300 -660 Descending Washington Center
01:29PM 36.2017 -78.6011 25° Northeast 476 548 27,000 -180 Descending Washington Center
01:30PM 36.3244 -78.5308 25° Northeast 476 548 27,000  Level Washington Center
01:31PM 36.4472 -78.4633 24° Northeast 476 548 27,000  Level Washington Center
01:32PM 36.5700 -78.3903 26° Northeast 476 548 27,000  Level Washington Center
01:33PM 36.6797 -78.3294 24° Northeast 476 548 27,000  Level Washington Center
01:34PM 36.8006 -78.2533 27° Northeast 476 548 27,000  Level Washington Center
01:35PM 36.9250 -78.1822 25° Northeast 476 548 27,000 -120 Level Washington Center
01:36PM 37.0475 -78.1136 24° Northeast 476 548 26,800 -1,020 Descending Washington Center
01:37PM 37.1700 -78.0392 26° Northeast 476 548 25,000 -1,860 Descending Washington Center
01:38PM 37.2903 -77.9700 25° Northeast 476 548 23,100 -1,020 Descending Washington Center
01:39PM 37.4086 -77.9031 24° Northeast 469 540 23,000 -60 Descending Washington Center
01:40PM 37.5267 -77.8308 26° Northeast 464 534 23,000 -240 Level Washington Center
01:41PM 37.6425 -77.7633 25° Northeast 464 534 22,600 -600 Descending Washington Center
01:42PM 37.7586 -77.6958 25° Northeast 464 534 21,800 -1,260 Descending Washington Center
01:43PM 37.8619 -77.6328 26° Northeast 440 506 20,100 -2,160 Descending Washington Center
01:44PM 37.9567 -77.5775 25° Northeast 403 464 17,500 -2,940 Descending Washington Center
01:45PM 38.0450 -77.5269 24° Northeast 352 405 14,300 -3,300 Descending Washington Center
01:46PM 38.1333 -77.4739 25° Northeast 326 375 11,000 -2,160 Descending Washington Center
01:47PM 38.2031 -77.4308 26° Northeast 307 353 10,000 -540 Descending Washington Center
01:48PM 38.2872 -77.3800 25° Northeast 302 348 10,000  Level Washington Center
01:49PM 38.3564 -77.3525 17° North 302 348 10,000 -600 Level Washington Center
01:50PM 38.4397 -77.3544 359° North 286 329 8,900 -1,800 Descending Washington Center
01:51PM 38.5208 -77.3617 356° North 291 335 6,500 -1,980 Descending Washington Center
01:52PM 38.6000 -77.3636 359° North 291 335 5,000 -900 Descending Washington Center
01:53PM 38.6667 -77.3667 358° North 272 313 5,000 -600 Level Potomac TRACON
01:54PM 38.7333 -77.3667 360° North 276 318 4,000 -360 Descending Potomac TRACON
01:56PM 38.9000 -77.3500 North 286 329 4,000 -120 Level Potomac TRACON
01:58PM 38.9474 -77.4599 North  Level Estimated
01:58PM 39.0500 -77.3500 North 246 283 3,600  Level Potomac TRACON
01:59PM 39.1167 -77.3500 360° North 229 264 3,000 -300 Descending Potomac TRACON
02:00PM 39.1333 -77.4167 288° West 196 226 3,000 -420 Level Potomac TRACON
02:02PM 39.0333 -77.4333 187° South 171 197 1,900 -600 Descending Potomac TRACON
02:03PM 39.0000 -77.4333 180° South 132 152 1,200 -720 Descending Potomac TRACON
02:05PM 38.9474 -77.4599 191° South  Level Estimated
02:12PM 38.9474 -77.4599 191° South  Level Estimated
02:13PM 38.9474 -77.4599 191° South  Level Estimated
02:14PM 38.9474 -77.4599 191° South  Level Estimated
02:15PM 38.9474 -77.4599 191° South  Level Estimated